INGA4: Red River, Index, AR

                                SHEF ID:       INGA4     Red River at Index, AR
STATION TYPE: Stream Gauge
Regulating: Stage = 19.80, Flow = 104273

PRECIP STAGE RIV-FLOW WTR-TEMP BAT-LOAD
in ft cfs F volt
Ccp-Rev Ccp-Rev Ccp-Rev Ccp-Rev Ccp-Rev
(America/Chicago)
04/26 00:00 0.00 2.58 8563 71.85 12.69
04/26 01:00 0.00 2.62 8710 71.71 12.67
04/26 02:00 0.00 2.63 8747 71.58 12.67
04/26 03:00 0.00 2.66 8857 71.46 12.65
04/26 04:00 0.00 2.67 8894 71.33 12.63
04/26 05:00 0.00 2.69 8968 71.15 12.61
04/26 06:00 0.00 2.71 9043 71.11 12.60
04/26 07:00 0.00 2.71 9043 70.99 12.57
04/26 08:00 0.00 2.72 9080 70.95 12.57
04/26 09:00 0.00 2.73 9117 70.95 12.78
04/26 10:00 0.00 2.73 9117 70.99 13.62
04/26 11:00 0.00 2.73 9117 71.17 13.62
04/26 12:00 0.00 2.74 9154 71.53 13.64
04/26 13:00 0.00 2.73 9117 72.01 13.53
04/26 14:00 0.00 2.72 9080 72.57 13.45
04/26 15:00 0.00 2.71 9043 72.99 13.26
04/26 16:00 0.00 2.71 9043 73.44 13.23
04/26 17:00 0.00 2.69 8968 73.72 13.19
04/26 18:00 0.00 2.68 8931 74.01 13.16
04/26 19:00 0.00 2.67 8894 74.19 13.10
04/26 20:00 0.00 2.65 8821 74.37 12.98
04/26 21:00 0.00 2.63 8747 74.44 12.76
04/26 22:00 0.00 2.62 8710 74.37 12.72
04/26 23:00 0.00 2.60 8637 74.25 12.70
Data processed at Mon 27Apr2026 04:11 GMT

NOTICE: If you are parsing this page

Please convert to using our Data API. Starting early 2026 we will be migrating to: https://water.usace.army.mil with modern pages rendered in JavaScript. When this migration completes you will no longer be able to scrape this page! CWMSDataAPI (CDA)

Timeseries IDs (TSIDs)

TSIDs used from left to right in the data table
INDX.Precip-Inc.Total.1Hour.1Hour.Ccp-Rev
INDX.Stage.Inst.1Hour.0.Ccp-Rev
INDX.Flow.Inst.1Hour.0.Ccp-Rev
INDX.Temp-Water.Inst.1Hour.0.Ccp-Rev
INDX.Volt-Battery Load.Inst.1Hour.0.Ccp-Rev

                            

All information presented herein is the property of the government of the United States of America and may be revised or deleted at any time without prior notice. Dissemination of this information without the expressed written consent of the Public Affairs Office, Tulsa District U.S. Army Corps of Engineers is strictly prohibited. These data are gathered electronically and, as presented, have NOT undergone any form of quality control. These data are NOT guaranteed to be valid or correct.